Water Valley, Texas
Current Conditions -  °F | °C
As of 3:51 AM on Saturday 25 Oct 2014 (Local Time) from KSJT Reporting Station
Clear Clear  
Wind Chill: 60°   Ceiling: Unl
Heat Index: 60°   Visibility: 10mi
Dew Point: 56°   Wind: 0mph
Humidity: 86%   Direction: NA
Pressure: 30.15"   Gusts: NA
Location:  31.67°N, 100.72°W
Report Text: KSJT 250851Z AUTO 00000KT 10SM CLR 16/13 A3015 RMK AO2 SLP190 T01560133 50001
Loading
Personal Weather Stations






























Interactive Weather Map New forecast layout! Learn more

10-Day Weather Forecast

Advertisements
Track Severe Weather on mobile